createdAt,value
2023-04-16T00:00:55.294Z,0
2023-04-16T00:01:56.084Z,0
2023-04-16T00:02:57.710Z,0
2023-04-16T00:03:59.594Z,0
2023-04-16T00:04:58.540Z,0
2023-04-16T00:05:59.758Z,0
2023-04-16T00:06:59.473Z,0
2023-04-16T00:08:00.227Z,0
2023-04-16T00:09:00.715Z,0
2023-04-16T00:10:01.415Z,0
2023-04-16T00:11:02.504Z,0
2023-04-16T00:12:03.385Z,0
2023-04-16T00:13:04.127Z,0
2023-04-16T00:14:04.386Z,0
2023-04-16T00:15:05.041Z,0
2023-04-16T00:16:05.750Z,0
2023-04-16T00:17:06.789Z,0
2023-04-16T00:18:06.680Z,0
2023-04-16T00:19:07.790Z,0
2023-04-16T00:20:07.700Z,0
2023-04-16T00:21:08.490Z,0
2023-04-16T00:22:09.233Z,0
2023-04-16T00:23:09.523Z,0
2023-04-16T00:24:10.251Z,0
2023-04-16T00:25:10.959Z,0
2023-04-16T00:26:11.671Z,0
2023-04-16T00:27:12.400Z,0
2023-04-16T00:28:14.726Z,0
2023-04-16T00:29:13.964Z,0
2023-04-16T00:30:13.662Z,0
2023-04-16T00:31:14.185Z,0
2023-04-16T00:32:14.675Z,0
2023-04-16T00:33:15.384Z,0
2023-04-16T00:34:16.104Z,0
2023-04-16T00:35:16.463Z,0
2023-04-16T00:36:17.111Z,0
2023-04-16T00:37:18.063Z,0
2023-04-16T00:38:18.369Z,0
2023-04-16T00:39:19.877Z,0
2023-04-16T00:40:19.462Z,0
2023-04-16T00:41:19.733Z,0
2023-04-16T00:42:21.218Z,0
2023-04-16T00:43:21.615Z,0
2023-04-16T00:44:22.502Z,0
2023-04-16T00:45:23.157Z,0
2023-04-16T00:46:24.111Z,0
2023-04-16T00:47:23.982Z,0
2023-04-16T00:48:24.484Z,0
2023-04-16T00:49:25.344Z,0
2023-04-16T00:50:26.297Z,0
2023-04-16T00:51:26.657Z,0
2023-04-16T00:52:27.569Z,0
2023-04-16T00:53:28.058Z,0
2023-04-16T00:54:28.544Z,0
2023-04-16T00:55:29.297Z,0
2023-04-16T00:56:31.606Z,0
2023-04-16T00:57:30.288Z,0
2023-04-16T00:58:30.986Z,0
2023-04-16T00:59:31.655Z,0
2023-04-16T01:00:32.385Z,0
2023-04-16T01:01:33.330Z,0
2023-04-16T01:02:35.168Z,0
2023-04-16T01:03:35.736Z,0
2023-04-16T01:04:36.541Z,0
2023-04-16T01:05:35.704Z,0
2023-04-16T01:06:36.669Z,0
2023-04-16T01:07:37.568Z,0
2023-04-16T01:08:38.239Z,0
2023-04-16T01:09:38.940Z,0
2023-04-16T01:10:39.469Z,0
2023-04-16T01:11:39.965Z,0
2023-04-16T01:12:40.674Z,0
2023-04-16T01:13:41.171Z,0
2023-04-16T01:14:41.815Z,0
2023-04-16T01:15:42.726Z,0
2023-04-16T01:16:43.163Z,0
2023-04-16T01:17:44.333Z,0
2023-04-16T01:18:44.522Z,0
2023-04-16T01:19:45.004Z,0
2023-04-16T01:20:45.520Z,0
2023-04-16T01:21:46.113Z,0
2023-04-16T01:22:47.050Z,0
2023-04-16T01:23:47.729Z,0
2023-04-16T01:24:48.481Z,0
2023-04-16T01:25:48.529Z,0
2023-04-16T01:26:48.859Z,0
2023-04-16T01:27:49.322Z,0
2023-04-16T01:28:49.405Z,0
2023-04-16T01:29:50.687Z,0
2023-04-16T01:30:50.995Z,0
2023-04-16T01:31:52.035Z,0
2023-04-16T01:32:51.941Z,0
2023-04-16T01:33:52.274Z,0
2023-04-16T01:34:52.574Z,0
2023-04-16T01:35:52.946Z,0
2023-04-16T01:36:54.009Z,0
2023-04-16T01:37:53.739Z,0
2023-04-16T01:38:54.205Z,0
2023-04-16T01:39:54.716Z,0
2023-04-16T01:40:55.419Z,0
2023-04-16T01:41:56.124Z,0
2023-04-16T01:42:56.391Z,0
2023-04-16T01:43:57.073Z,0
2023-04-16T01:44:58.133Z,0
2023-04-16T01:45:58.208Z,0
2023-04-16T01:46:59.461Z,0
2023-04-16T01:48:00.006Z,0
2023-04-16T01:49:00.926Z,0
2023-04-16T01:50:01.594Z,0
2023-04-16T01:51:02.491Z,0
2023-04-16T01:52:03.476Z,0
2023-04-16T01:53:04.197Z,0
2023-04-16T01:54:04.670Z,0
2023-04-16T01:55:05.776Z,0
2023-04-16T01:56:05.964Z,0
2023-04-16T01:57:06.650Z,0
2023-04-16T01:58:06.966Z,0
2023-04-16T01:59:07.520Z,0
2023-04-16T02:00:08.364Z,0
2023-04-16T02:01:08.943Z,0
2023-04-16T02:02:09.692Z,0
2023-04-16T02:03:11.677Z,0
2023-04-16T02:04:12.332Z,0
2023-04-16T02:05:12.112Z,0
2023-04-16T02:06:12.386Z,0
2023-04-16T02:07:12.744Z,0
2023-04-16T02:08:13.785Z,0
2023-04-16T02:09:14.093Z,0
2023-04-16T02:10:14.798Z,0
2023-04-16T02:11:15.314Z,0
2023-04-16T02:12:15.997Z,0
2023-04-16T02:13:16.489Z,0
2023-04-16T02:14:16.979Z,0
2023-04-16T02:15:17.693Z,0
2023-04-16T02:16:18.786Z,0
2023-04-16T02:17:18.823Z,0
2023-04-16T02:18:19.554Z,0
2023-04-16T02:19:21.217Z,0
2023-04-16T02:20:20.298Z,0
2023-04-16T02:21:21.425Z,0
2023-04-16T02:22:21.968Z,0
2023-04-16T02:23:22.666Z,0
2023-04-16T02:24:22.972Z,0
2023-04-16T02:25:23.542Z,0
2023-04-16T02:26:23.823Z,0
2023-04-16T02:27:24.748Z,0
2023-04-16T02:28:25.222Z,0
2023-04-16T02:29:26.013Z,0
2023-04-16T02:30:26.558Z,0
2023-04-16T02:31:27.237Z,0
2023-04-16T02:32:27.979Z,0
2023-04-16T02:33:28.306Z,0
2023-04-16T02:34:28.610Z,0
2023-04-16T02:35:29.144Z,0
2023-04-16T02:36:29.752Z,0
2023-04-16T02:37:30.710Z,0
2023-04-16T02:38:30.429Z,0
2023-04-16T02:39:30.913Z,0
2023-04-16T02:40:31.317Z,0
2023-04-16T02:41:31.835Z,0
2023-04-16T02:42:32.952Z,0
2023-04-16T02:43:32.861Z,0
2023-04-16T02:44:33.150Z,0
2023-04-16T02:45:33.690Z,0
2023-04-16T02:46:34.047Z,0
2023-04-16T02:47:34.686Z,0
2023-04-16T02:48:35.605Z,0
2023-04-16T02:49:35.093Z,0
2023-04-16T02:50:36.007Z,0
2023-04-16T02:51:36.482Z,0
2023-04-16T02:52:37.219Z,0
2023-04-16T02:53:38.195Z,0
2023-04-16T02:54:39.095Z,0
2023-04-16T02:55:40.346Z,0
2023-04-16T02:56:40.523Z,0
2023-04-16T02:57:40.828Z,0
2023-04-16T02:58:41.144Z,0
2023-04-16T02:59:42.227Z,0
2023-04-16T03:00:42.726Z,0
2023-04-16T03:01:43.968Z,0
2023-04-16T03:02:44.305Z,0
2023-04-16T03:03:43.841Z,0
2023-04-16T03:04:44.502Z,0
2023-04-16T03:05:45.900Z,0
2023-04-16T03:06:45.912Z,0
2023-04-16T03:07:46.910Z,0
2023-04-16T03:08:46.854Z,0
2023-04-16T03:09:47.595Z,0
2023-04-16T03:10:48.278Z,0
2023-04-16T03:11:49.240Z,0
2023-04-16T03:12:48.923Z,0
2023-04-16T03:13:49.680Z,0
2023-04-16T03:14:50.352Z,0
2023-04-16T03:15:50.945Z,0
2023-04-16T03:16:51.676Z,0
2023-04-16T03:17:53.033Z,0
2023-04-16T03:18:52.362Z,0
2023-04-16T03:19:53.061Z,0
2023-04-16T03:20:53.329Z,0
2023-04-16T03:21:54.089Z,0
2023-04-16T03:22:54.807Z,0
2023-04-16T03:23:55.956Z,0
2023-04-16T03:24:56.055Z,0
2023-04-16T03:25:56.767Z,0
2023-04-16T03:26:57.320Z,0
2023-04-16T03:27:58.007Z,0
2023-04-16T03:28:58.940Z,0
2023-04-16T03:29:59.637Z,0
2023-04-16T03:31:00.428Z,0
2023-04-16T03:32:00.763Z,0
2023-04-16T03:33:01.833Z,0
2023-04-16T03:34:01.425Z,0
2023-04-16T03:35:01.992Z,0
2023-04-16T03:36:02.724Z,0
2023-04-16T03:37:03.092Z,0
2023-04-16T03:38:03.629Z,0
2023-04-16T03:39:04.366Z,0
2023-04-16T03:40:04.877Z,0
2023-04-16T03:41:05.776Z,0
2023-04-16T03:42:06.289Z,0
2023-04-16T03:43:06.967Z,0
2023-04-16T03:44:07.667Z,0
2023-04-16T03:45:08.153Z,0
2023-04-16T03:46:09.007Z,0
2023-04-16T03:47:09.867Z,0
2023-04-16T03:48:10.255Z,0
2023-04-16T03:49:09.907Z,0
2023-04-16T03:50:10.529Z,0
2023-04-16T03:51:11.000Z,0
2023-04-16T03:52:12.138Z,0
2023-04-16T03:53:13.109Z,0
2023-04-16T03:54:12.821Z,0
2023-04-16T03:55:13.337Z,0
2023-04-16T03:56:13.838Z,0
2023-04-16T03:57:14.269Z,0
2023-04-16T03:58:15.164Z,0
2023-04-16T03:59:15.810Z,0
2023-04-16T04:00:16.441Z,0
2023-04-16T04:01:16.748Z,0
2023-04-16T04:02:17.817Z,0
2023-04-16T04:03:19.829Z,0
2023-04-16T04:04:19.757Z,0
2023-04-16T04:05:20.089Z,0
2023-04-16T04:06:19.191Z,0
2023-04-16T04:07:20.575Z,0
2023-04-16T04:08:21.532Z,0
2023-04-16T04:09:22.204Z,0
2023-04-16T04:10:21.742Z,0
2023-04-16T04:11:22.252Z,0
2023-04-16T04:12:22.781Z,0
2023-04-16T04:13:23.521Z,0
2023-04-16T04:14:24.013Z,0
2023-04-16T04:15:24.524Z,0
2023-04-16T04:16:25.362Z,0
2023-04-16T04:17:25.810Z,0
2023-04-16T04:18:26.312Z,0
2023-04-16T04:19:27.637Z,0
2023-04-16T04:20:27.101Z,0
2023-04-16T04:21:27.829Z,0
2023-04-16T04:22:28.750Z,0
2023-04-16T04:23:29.486Z,0
2023-04-16T04:24:30.410Z,0
2023-04-16T04:25:31.109Z,0
2023-04-16T04:26:32.123Z,0
2023-04-16T04:27:32.686Z,0
2023-04-16T04:28:33.416Z,0
2023-04-16T04:29:33.911Z,0
2023-04-16T04:30:35.006Z,0
2023-04-16T04:31:35.753Z,0
2023-04-16T04:32:36.238Z,0
2023-04-16T04:33:36.984Z,0
2023-04-16T04:34:37.886Z,0
2023-04-16T04:35:38.369Z,0
2023-04-16T04:36:38.642Z,0
2023-04-16T04:37:39.060Z,0
2023-04-16T04:38:39.604Z,0
2023-04-16T04:39:40.312Z,0
2023-04-16T04:40:41.011Z,0
2023-04-16T04:41:41.514Z,0
2023-04-16T04:42:41.844Z,0
2023-04-16T04:43:42.534Z,0
2023-04-16T04:44:43.026Z,0
2023-04-16T04:45:46.298Z,0
2023-04-16T04:46:44.067Z,0
2023-04-16T04:47:44.046Z,0
2023-04-16T04:48:44.746Z,0
2023-04-16T04:49:45.638Z,0
2023-04-16T04:50:45.920Z,0
2023-04-16T04:51:46.614Z,0
2023-04-16T04:52:47.559Z,0
2023-04-16T04:53:48.339Z,0
2023-04-16T04:54:49.354Z,0
2023-04-16T04:55:53.083Z,0
2023-04-16T04:56:50.735Z,0
2023-04-16T04:57:51.354Z,0
2023-04-16T04:58:52.074Z,0
2023-04-16T04:59:52.557Z,0
2023-04-16T05:00:53.736Z,0
2023-04-16T05:01:54.514Z,0
2023-04-16T05:02:55.854Z,0
2023-04-16T05:03:56.039Z,0
2023-04-16T05:04:55.756Z,0
2023-04-16T05:05:56.661Z,5.63
2023-04-16T05:06:56.942Z,5.63
2023-04-16T05:07:58.702Z,5.63
2023-04-16T05:08:58.420Z,5.63
2023-04-16T05:09:59.163Z,5.63
2023-04-16T05:10:59.704Z,5.63
2023-04-16T05:12:00.196Z,5.63
2023-04-16T05:13:01.055Z,5.63
2023-04-16T05:14:01.332Z,5.63
2023-04-16T05:15:02.312Z,5.63
2023-04-16T05:16:03.238Z,5.63
2023-04-16T05:17:04.141Z,5.63
2023-04-16T05:18:04.968Z,5.63
2023-04-16T05:19:05.294Z,5.63
2023-04-16T05:20:05.795Z,5.63
2023-04-16T05:21:06.613Z,5.63
2023-04-16T05:22:07.371Z,5.63
2023-04-16T05:23:07.867Z,5.63
2023-04-16T05:24:08.614Z,5.63
2023-04-16T05:25:09.225Z,5.63
2023-04-16T05:26:10.126Z,5.63
2023-04-16T05:27:10.870Z,11.25
2023-04-16T05:28:11.488Z,11.25
2023-04-16T05:29:12.727Z,5.63
2023-04-16T05:30:12.218Z,5.63
2023-04-16T05:31:12.830Z,11.25
2023-04-16T05:32:13.409Z,11.25
2023-04-16T05:33:14.383Z,11.25
2023-04-16T05:34:13.875Z,11.25
2023-04-16T05:35:16.772Z,11.25
2023-04-16T05:36:15.199Z,11.25
2023-04-16T05:37:15.494Z,11.25
2023-04-16T05:38:15.933Z,11.25
2023-04-16T05:39:16.502Z,11.25
2023-04-16T05:40:17.207Z,11.25
2023-04-16T05:41:17.923Z,11.25
2023-04-16T05:42:18.618Z,11.25
2023-04-16T05:43:19.163Z,16.88
2023-04-16T05:44:20.056Z,16.88
2023-04-16T05:45:20.990Z,16.88
2023-04-16T05:46:21.488Z,16.88
2023-04-16T05:47:22.195Z,16.88
2023-04-16T05:48:22.877Z,16.88
2023-04-16T05:49:23.996Z,16.88
2023-04-16T05:50:24.726Z,16.88
2023-04-16T05:51:25.244Z,22.5
2023-04-16T05:52:25.553Z,22.5
2023-04-16T05:53:26.501Z,22.5
2023-04-16T05:54:27.174Z,22.5
2023-04-16T05:55:27.894Z,22.5
2023-04-16T05:56:28.383Z,22.5
2023-04-16T05:57:28.875Z,22.5
2023-04-16T05:58:29.676Z,22.5
2023-04-16T05:59:29.981Z,22.5
2023-04-16T06:00:30.893Z,22.5
2023-04-16T06:01:33.407Z,22.5
2023-04-16T06:02:32.664Z,22.5
2023-04-16T06:03:33.123Z,22.5
2023-04-16T06:04:33.493Z,22.5
2023-04-16T06:05:33.494Z,22.5
2023-04-16T06:06:33.644Z,22.5
2023-04-16T06:07:34.142Z,22.5
2023-04-16T06:08:35.379Z,22.5
2023-04-16T06:09:35.910Z,22.5
2023-04-16T06:10:36.853Z,22.5
2023-04-16T06:11:37.818Z,28.13
2023-04-16T06:12:37.570Z,28.13
2023-04-16T06:13:38.171Z,28.13
2023-04-16T06:14:38.849Z,28.13
2023-04-16T06:15:39.956Z,28.13
2023-04-16T06:16:39.706Z,28.13
2023-04-16T06:17:40.418Z,33.75
2023-04-16T06:18:41.342Z,28.13
2023-04-16T06:19:41.845Z,28.13
2023-04-16T06:20:42.586Z,33.75
2023-04-16T06:21:43.333Z,33.75
2023-04-16T06:22:44.237Z,33.75
2023-04-16T06:23:44.739Z,33.75
2023-04-16T06:24:45.334Z,33.75
2023-04-16T06:25:46.145Z,33.75
2023-04-16T06:26:46.424Z,39.38
2023-04-16T06:27:46.993Z,39.38
2023-04-16T06:28:47.517Z,39.38
2023-04-16T06:29:56.607Z,45
2023-04-16T06:30:48.278Z,45
2023-04-16T06:31:48.600Z,45
2023-04-16T06:32:49.659Z,45
2023-04-16T06:33:49.728Z,45
2023-04-16T06:34:50.418Z,45
2023-04-16T06:35:51.329Z,45
2023-04-16T06:36:51.657Z,45
2023-04-16T06:37:52.365Z,50.63
2023-04-16T06:38:52.568Z,50.63
2023-04-16T06:39:53.525Z,50.63
2023-04-16T06:40:54.228Z,50.63
2023-04-16T06:41:55.206Z,45
2023-04-16T06:42:56.678Z,45
2023-04-16T06:43:56.404Z,50.63
2023-04-16T06:44:57.090Z,50.63
2023-04-16T06:45:57.996Z,50.63
2023-04-16T06:46:59.271Z,45
2023-04-16T06:47:59.208Z,45
2023-04-16T06:48:59.013Z,39.38
2023-04-16T06:49:59.322Z,39.38
2023-04-16T06:50:59.609Z,39.38
2023-04-16T06:52:00.144Z,39.38
2023-04-16T06:53:00.659Z,39.38
2023-04-16T06:54:01.359Z,39.38
2023-04-16T06:55:02.049Z,45
2023-04-16T06:56:03.019Z,50.63
2023-04-16T06:57:03.707Z,50.63
2023-04-16T06:58:04.611Z,50.63
2023-04-16T06:59:05.424Z,50.63
2023-04-16T07:00:06.103Z,56.25
2023-04-16T07:01:07.227Z,56.25
2023-04-16T07:02:07.627Z,61.88
2023-04-16T07:03:09.737Z,61.88
2023-04-16T07:04:08.557Z,61.88
2023-04-16T07:05:07.776Z,67.5
2023-04-16T07:06:08.473Z,67.5
2023-04-16T07:07:09.006Z,67.5
2023-04-16T07:08:09.524Z,67.5
2023-04-16T07:09:10.057Z,67.5
2023-04-16T07:10:10.498Z,73.13
2023-04-16T07:11:11.609Z,73.13
2023-04-16T07:12:11.929Z,78.75
2023-04-16T07:13:12.642Z,84.38
2023-04-16T07:14:13.857Z,95.63
2023-04-16T07:15:13.143Z,95.63
2023-04-16T07:16:13.977Z,95.63
2023-04-16T07:17:14.597Z,101.25
2023-04-16T07:18:15.424Z,95.63
2023-04-16T07:19:15.637Z,95.63
2023-04-16T07:20:16.560Z,95.63
2023-04-16T07:21:16.843Z,90
2023-04-16T07:22:17.386Z,90
2023-04-16T07:23:18.089Z,84.38
2023-04-16T07:24:19.050Z,84.38
2023-04-16T07:25:19.812Z,78.75
2023-04-16T07:26:20.592Z,78.75
2023-04-16T07:27:21.297Z,73.13
2023-04-16T07:28:22.052Z,73.13
2023-04-16T07:29:23.270Z,73.13
2023-04-16T07:30:23.011Z,73.13
2023-04-16T07:31:23.770Z,78.75
2023-04-16T07:32:26.818Z,84.38
2023-04-16T07:33:24.729Z,78.75
2023-04-16T07:34:25.819Z,78.75
2023-04-16T07:35:25.819Z,73.13
2023-04-16T07:36:26.334Z,73.13
2023-04-16T07:37:27.090Z,73.13
2023-04-16T07:38:27.151Z,84.38
2023-04-16T07:39:28.795Z,84.38
2023-04-16T07:40:29.635Z,84.38
2023-04-16T07:41:30.546Z,84.38
2023-04-16T07:42:31.235Z,84.38
2023-04-16T07:43:31.937Z,78.75
2023-04-16T07:44:32.693Z,78.75
2023-04-16T07:45:33.412Z,78.75
2023-04-16T07:46:52.197Z,78.75
2023-04-16T07:48:35.777Z,73.13
2023-04-16T07:49:36.243Z,73.13
2023-04-16T07:50:37.399Z,73.13
2023-04-16T07:51:38.111Z,73.13
2023-04-16T07:52:38.623Z,73.13
2023-04-16T07:53:39.529Z,73.13
2023-04-16T07:54:40.513Z,73.13
2023-04-16T07:55:41.440Z,78.75
2023-04-16T07:56:42.384Z,84.38
2023-04-16T07:57:42.708Z,90
2023-04-16T07:58:43.422Z,90
2023-04-16T07:59:44.228Z,90
2023-04-16T08:00:44.150Z,84.38
2023-04-16T08:01:44.312Z,84.38
2023-04-16T08:02:45.591Z,90
2023-04-16T08:03:47.252Z,90
2023-04-16T08:04:47.121Z,90
2023-04-16T08:05:46.553Z,95.63
2023-04-16T08:06:46.875Z,95.63
2023-04-16T08:07:50.560Z,101.25
2023-04-16T08:08:48.273Z,101.25
2023-04-16T08:09:48.544Z,106.88
2023-04-16T08:10:48.921Z,106.88
2023-04-16T08:11:50.010Z,101.25
2023-04-16T08:12:50.013Z,95.63
2023-04-16T08:13:50.516Z,95.63
2023-04-16T08:14:51.457Z,90
2023-04-16T08:15:52.186Z,84.38
2023-04-16T08:16:52.791Z,84.38
2023-04-16T08:17:53.812Z,78.75
2023-04-16T08:18:54.554Z,78.75
2023-04-16T08:19:55.170Z,73.13
2023-04-16T08:20:55.866Z,73.13
2023-04-16T08:21:56.384Z,73.13
2023-04-16T08:22:57.077Z,73.13
2023-04-16T08:23:57.364Z,67.5
2023-04-16T08:24:58.085Z,61.88
2023-04-16T08:25:58.623Z,61.88
2023-04-16T08:27:05.295Z,56.25
2023-04-16T08:27:59.715Z,56.25
2023-04-16T08:29:00.431Z,56.25
2023-04-16T08:30:00.972Z,56.25
2023-04-16T08:31:01.348Z,56.25
2023-04-16T08:32:02.239Z,61.88
2023-04-16T08:33:06.139Z,61.88
2023-04-16T08:34:03.870Z,67.5
2023-04-16T08:35:04.590Z,73.13
2023-04-16T08:36:05.145Z,73.13
2023-04-16T08:37:05.651Z,73.13
2023-04-16T08:38:08.014Z,73.13
2023-04-16T08:39:07.018Z,73.13
2023-04-16T08:41:07.623Z,73.13
2023-04-16T08:42:08.356Z,73.13
2023-04-16T08:43:08.636Z,73.13
2023-04-16T08:44:09.133Z,78.75
2023-04-16T08:45:10.076Z,78.75
2023-04-16T08:46:11.187Z,78.75
2023-04-16T08:47:11.522Z,78.75
2023-04-16T08:48:11.772Z,78.75
2023-04-16T08:49:12.207Z,84.38
2023-04-16T08:50:14.630Z,84.38
2023-04-16T08:51:13.531Z,84.38
2023-04-16T08:52:14.698Z,84.38
2023-04-16T08:53:14.292Z,84.38
2023-04-16T08:54:15.020Z,84.38
2023-04-16T08:55:15.941Z,84.38
2023-04-16T08:56:16.513Z,90
2023-04-16T08:57:17.460Z,90
2023-04-16T08:58:17.930Z,95.63
2023-04-16T08:59:19.174Z,95.63
2023-04-16T09:00:19.836Z,95.63
2023-04-16T09:01:20.624Z,95.63
2023-04-16T09:02:21.906Z,95.63
2023-04-16T09:03:22.531Z,95.63
2023-04-16T09:04:23.386Z,95.63
2023-04-16T09:05:23.212Z,90
2023-04-16T09:06:23.932Z,90
2023-04-16T09:07:24.616Z,95.63
2023-04-16T09:08:25.311Z,101.25
2023-04-16T09:09:26.515Z,106.88
2023-04-16T09:10:26.795Z,106.88
2023-04-16T09:11:27.550Z,106.88
2023-04-16T09:12:28.502Z,112.5
2023-04-16T09:13:29.196Z,112.5
2023-04-16T09:14:30.096Z,112.5
2023-04-16T09:15:31.476Z,112.5
2023-04-16T09:16:31.278Z,106.88
2023-04-16T09:17:31.930Z,106.88
2023-04-16T09:18:32.485Z,106.88
2023-04-16T09:19:33.212Z,101.25
2023-04-16T09:20:33.823Z,95.63
2023-04-16T09:21:34.938Z,95.63
2023-04-16T09:22:34.615Z,90
2023-04-16T09:23:35.305Z,90
2023-04-16T09:24:35.596Z,90
2023-04-16T09:25:36.303Z,90
2023-04-16T09:26:37.153Z,90
2023-04-16T09:27:38.676Z,90
2023-04-16T09:28:38.183Z,90
2023-04-16T09:29:38.687Z,90
2023-04-16T09:30:39.616Z,95.63
2023-04-16T09:31:40.316Z,95.63
2023-04-16T09:32:41.430Z,95.63
2023-04-16T09:33:45.257Z,90
2023-04-16T09:34:42.945Z,90
2023-04-16T09:35:43.929Z,84.38
2023-04-16T09:36:44.661Z,84.38
2023-04-16T09:37:45.136Z,84.38
2023-04-16T09:38:45.639Z,84.38
2023-04-16T09:39:46.111Z,84.38
2023-04-16T09:40:46.445Z,78.75
2023-04-16T09:41:47.084Z,78.75
2023-04-16T09:42:48.125Z,78.75
2023-04-16T09:43:48.631Z,78.75
2023-04-16T09:44:49.152Z,78.75
2023-04-16T09:45:49.940Z,78.75
2023-04-16T09:46:50.643Z,84.38
2023-04-16T09:47:51.066Z,84.38
2023-04-16T09:48:51.568Z,84.38
2023-04-16T09:49:52.452Z,78.75
2023-04-16T09:50:52.927Z,78.75
2023-04-16T09:51:53.643Z,78.75
2023-04-16T09:52:54.529Z,78.75
2023-04-16T09:53:55.016Z,78.75
2023-04-16T09:54:55.936Z,78.75
2023-04-16T09:55:58.161Z,84.38
2023-04-16T09:56:57.123Z,84.38
2023-04-16T09:57:58.136Z,84.38
2023-04-16T09:58:58.822Z,84.38
2023-04-16T09:59:59.139Z,84.38
2023-04-16T10:01:00.414Z,90
2023-04-16T10:02:20.885Z,95.63
2023-04-16T10:03:01.826Z,95.63
2023-04-16T10:04:01.586Z,101.25
2023-04-16T10:05:01.600Z,106.88
2023-04-16T10:06:01.340Z,112.5
2023-04-16T10:07:01.986Z,112.5
2023-04-16T10:08:02.926Z,112.5
2023-04-16T10:09:05.817Z,112.5
2023-04-16T10:10:04.671Z,112.5
2023-04-16T10:11:05.370Z,112.5
2023-04-16T10:12:06.128Z,112.5
2023-04-16T10:13:07.315Z,112.5
2023-04-16T10:14:07.016Z,112.5
2023-04-16T10:15:07.499Z,112.5
2023-04-16T10:16:08.243Z,106.88
2023-04-16T10:17:09.052Z,95.63
2023-04-16T10:18:10.085Z,90
2023-04-16T10:19:11.228Z,90
2023-04-16T10:20:11.226Z,90
2023-04-16T10:21:12.068Z,95.63
2023-04-16T10:22:12.841Z,101.25
2023-04-16T10:23:13.142Z,106.88
2023-04-16T10:24:13.700Z,106.88
2023-04-16T10:25:14.257Z,106.88
2023-04-16T10:26:15.235Z,112.5
2023-04-16T10:27:15.822Z,118.13
2023-04-16T10:28:16.950Z,123.75
2023-04-16T10:29:16.806Z,123.75
2023-04-16T10:30:17.363Z,129.38
2023-04-16T10:31:18.213Z,123.75
2023-04-16T10:32:18.035Z,123.75
2023-04-16T10:33:18.840Z,118.13
2023-04-16T10:34:19.145Z,112.5
2023-04-16T10:35:19.876Z,112.5
2023-04-16T10:36:24.373Z,106.88
2023-04-16T10:37:20.950Z,112.5
2023-04-16T10:38:21.453Z,112.5
2023-04-16T10:39:25.270Z,118.13
2023-04-16T10:40:23.042Z,112.5
2023-04-16T10:41:23.695Z,112.5
2023-04-16T10:42:24.663Z,112.5
2023-04-16T10:43:24.597Z,112.5
2023-04-16T10:44:25.097Z,106.88
2023-04-16T10:45:25.815Z,106.88
2023-04-16T10:46:27.099Z,106.88
2023-04-16T10:47:26.859Z,101.25
2023-04-16T10:48:30.897Z,95.63
2023-04-16T10:49:28.036Z,101.25
2023-04-16T10:50:29.174Z,106.88
2023-04-16T10:51:29.645Z,106.88
2023-04-16T10:52:30.570Z,106.88
2023-04-16T10:53:31.285Z,106.88
2023-04-16T10:54:31.646Z,101.25
2023-04-16T10:55:32.151Z,95.63
2023-04-16T10:56:32.697Z,95.63
2023-04-16T10:57:33.670Z,90
2023-04-16T10:58:34.453Z,90
2023-04-16T10:59:35.172Z,84.38
2023-04-16T11:00:35.869Z,78.75
2023-04-16T11:01:37.101Z,78.75
2023-04-16T11:02:39.489Z,78.75
2023-04-16T11:03:38.214Z,78.75
2023-04-16T11:04:39.108Z,84.38
2023-04-16T11:05:39.000Z,84.38
2023-04-16T11:06:39.322Z,90
2023-04-16T11:07:40.224Z,95.63
2023-04-16T11:08:58.778Z,101.25
2023-04-16T11:09:40.424Z,101.25
2023-04-16T11:10:41.160Z,95.63
2023-04-16T11:11:41.735Z,90
2023-04-16T11:12:42.478Z,90
2023-04-16T11:13:43.569Z,90
2023-04-16T11:14:43.072Z,90
2023-04-16T11:15:44.070Z,90
2023-04-16T11:16:45.005Z,90
2023-04-16T11:17:45.889Z,90
2023-04-16T11:18:57.160Z,84.38
2023-04-16T11:20:47.273Z,78.75
2023-04-16T11:21:48.080Z,78.75
2023-04-16T11:22:49.232Z,78.75
2023-04-16T11:23:49.733Z,78.75
2023-04-16T11:24:50.623Z,78.75
2023-04-16T11:25:51.361Z,67.5
2023-04-16T11:26:52.309Z,61.88
2023-04-16T11:27:53.054Z,61.88
2023-04-16T11:28:54.190Z,61.88
2023-04-16T11:29:58.433Z,61.88
2023-04-16T11:30:54.950Z,67.5
2023-04-16T11:31:55.611Z,67.5
2023-04-16T11:32:56.248Z,61.88
2023-04-16T11:33:57.222Z,61.88
2023-04-16T11:34:57.694Z,56.25
2023-04-16T11:35:58.176Z,56.25
2023-04-16T11:36:59.149Z,56.25
2023-04-16T11:37:59.688Z,61.88
2023-04-16T11:39:00.584Z,61.88
2023-04-16T11:40:01.489Z,61.88
2023-04-16T11:41:02.018Z,56.25
2023-04-16T11:42:02.478Z,56.25
2023-04-16T11:43:05.171Z,56.25
2023-04-16T11:44:04.355Z,61.88
2023-04-16T11:45:03.835Z,61.88
2023-04-16T11:46:10.153Z,61.88
2023-04-16T11:47:04.744Z,61.88
2023-04-16T11:48:05.840Z,67.5
2023-04-16T11:49:07.002Z,67.5
2023-04-16T11:50:06.707Z,67.5
2023-04-16T11:51:07.679Z,67.5
2023-04-16T11:52:08.248Z,67.5
2023-04-16T11:53:08.945Z,67.5
2023-04-16T11:54:11.797Z,73.13
2023-04-16T11:55:09.993Z,61.88
2023-04-16T11:56:10.915Z,61.88
2023-04-16T11:57:11.476Z,56.25
2023-04-16T11:58:14.834Z,56.25
2023-04-16T11:59:15.038Z,56.25
2023-04-16T12:00:23.160Z,56.25
2023-04-16T12:01:13.126Z,56.25
2023-04-16T12:02:14.594Z,56.25
2023-04-16T12:03:15.835Z,56.25
2023-04-16T12:04:15.950Z,56.25
2023-04-16T12:05:16.070Z,56.25
2023-04-16T12:06:16.167Z,50.63
2023-04-16T12:07:17.663Z,50.63
2023-04-16T12:08:18.783Z,50.63
2023-04-16T12:09:18.448Z,50.63
2023-04-16T12:10:18.955Z,56.25
2023-04-16T12:11:19.455Z,56.25
2023-04-16T12:12:20.423Z,56.25
2023-04-16T12:13:21.165Z,56.25
2023-04-16T12:14:22.099Z,56.25
2023-04-16T12:15:22.821Z,56.25
2023-04-16T12:16:23.945Z,56.25
2023-04-16T12:17:24.082Z,56.25
2023-04-16T12:18:24.171Z,56.25
2023-04-16T12:19:24.871Z,56.25
2023-04-16T12:20:25.558Z,56.25
2023-04-16T12:21:26.241Z,61.88
2023-04-16T12:22:26.615Z,61.88
2023-04-16T12:23:27.342Z,61.88
2023-04-16T12:24:27.860Z,61.88
2023-04-16T12:25:28.569Z,61.88
2023-04-16T12:26:29.144Z,61.88
2023-04-16T12:27:30.054Z,61.88
2023-04-16T12:28:30.802Z,61.88
2023-04-16T12:29:31.925Z,61.88
2023-04-16T12:30:32.475Z,61.88
2023-04-16T12:31:33.717Z,61.88
2023-04-16T12:32:34.164Z,61.88
2023-04-16T12:33:34.708Z,56.25
2023-04-16T12:35:00.054Z,56.25
2023-04-16T12:36:35.966Z,56.25
2023-04-16T12:37:36.952Z,56.25
2023-04-16T12:38:40.608Z,50.63
2023-04-16T12:39:37.932Z,50.63
2023-04-16T12:40:38.541Z,50.63
2023-04-16T12:41:39.021Z,50.63
2023-04-16T12:42:39.275Z,50.63
2023-04-16T12:43:40.045Z,50.63
2023-04-16T12:44:41.195Z,50.63
2023-04-16T12:45:41.940Z,50.63
2023-04-16T12:46:42.709Z,50.63
2023-04-16T12:47:43.219Z,45
2023-04-16T12:48:43.521Z,50.63
2023-04-16T12:49:44.060Z,50.63
2023-04-16T12:50:44.726Z,45
2023-04-16T12:51:45.099Z,45
2023-04-16T12:52:46.518Z,50.63
2023-04-16T12:53:47.238Z,50.63
2023-04-16T12:54:47.352Z,50.63
2023-04-16T12:55:48.064Z,50.63
2023-04-16T12:56:48.583Z,50.63
2023-04-16T12:57:49.350Z,45
2023-04-16T12:58:50.098Z,45
2023-04-16T12:59:50.822Z,45
2023-04-16T13:00:51.370Z,45
2023-04-16T13:01:52.149Z,45
2023-04-16T13:02:53.799Z,45
2023-04-16T13:03:54.158Z,45
2023-04-16T13:04:54.484Z,45
2023-04-16T13:05:53.816Z,45
2023-04-16T13:06:54.283Z,45
2023-04-16T13:07:55.018Z,39.38
2023-04-16T13:08:55.326Z,45
2023-04-16T13:09:56.259Z,45
2023-04-16T13:10:55.928Z,45
2023-04-16T13:11:56.854Z,45
2023-04-16T13:12:57.308Z,45
2023-04-16T13:13:57.851Z,45
2023-04-16T13:15:00.974Z,45
2023-04-16T13:15:59.644Z,45
2023-04-16T13:17:00.186Z,45
2023-04-16T13:18:01.472Z,45
2023-04-16T13:19:01.017Z,45
2023-04-16T13:20:01.737Z,45
2023-04-16T13:21:02.069Z,50.63
2023-04-16T13:22:02.781Z,50.63
2023-04-16T13:23:03.602Z,50.63
2023-04-16T13:24:03.083Z,50.63
2023-04-16T13:25:03.814Z,50.63
2023-04-16T13:26:07.221Z,50.63
2023-04-16T13:27:04.704Z,50.63
2023-04-16T13:28:05.419Z,45
2023-04-16T13:29:06.010Z,45
2023-04-16T13:30:06.553Z,45
2023-04-16T13:31:10.996Z,45
2023-04-16T13:32:08.052Z,45
2023-04-16T13:33:08.640Z,45
2023-04-16T13:34:09.182Z,45
2023-04-16T13:35:10.103Z,45
2023-04-16T13:36:10.716Z,45
2023-04-16T13:37:11.217Z,45
2023-04-16T13:38:11.787Z,45
2023-04-16T13:39:12.200Z,45
2023-04-16T13:40:12.788Z,45
2023-04-16T13:41:13.487Z,45
2023-04-16T13:42:14.195Z,45
2023-04-16T13:43:18.437Z,45
2023-04-16T13:44:15.038Z,45
2023-04-16T13:45:15.961Z,45
2023-04-16T13:46:16.740Z,45
2023-04-16T13:47:17.696Z,39.38
2023-04-16T13:48:18.400Z,39.38
2023-04-16T13:49:19.764Z,45
2023-04-16T13:50:19.726Z,45
2023-04-16T13:51:20.432Z,45
2023-04-16T13:52:20.958Z,45
2023-04-16T13:53:21.436Z,45
2023-04-16T13:54:22.330Z,45